createdAt,value
2017-02-21T00:00:20.213Z,1004.08
2017-02-21T00:01:24.369Z,1004.1
2017-02-21T00:02:29.497Z,1004.12
2017-02-21T00:03:34.622Z,1004.11
2017-02-21T00:04:39.723Z,1004.06
2017-02-21T00:05:44.852Z,1004.11
2017-02-21T00:06:50.962Z,1004.09
2017-02-21T00:07:55.125Z,1004.1
2017-02-21T00:09:01.217Z,1004.15
2017-02-21T00:10:06.376Z,1004.09
2017-02-21T00:11:11.644Z,1004.09
2017-02-21T00:12:17.749Z,1004.1
2017-02-21T00:13:23.848Z,1004.07
2017-02-21T00:14:29.944Z,1004.09
2017-02-21T00:15:36.044Z,1004.06
2017-02-21T00:16:42.138Z,1004.03
2017-02-21T00:17:47.245Z,1004.03
2017-02-21T00:18:53.409Z,1004.05
2017-02-21T00:19:58.540Z,1004.05
2017-02-21T00:21:04.650Z,1004.03
2017-02-21T00:22:10.872Z,1004.02
2017-02-21T00:23:14.912Z,1004.05
2017-02-21T00:24:21.027Z,1004.05
2017-02-21T00:25:26.294Z,1004.02
2017-02-21T00:26:31.674Z,1004.05
2017-02-21T00:27:37.768Z,1004.04
2017-02-21T00:28:42.901Z,1004.08
2017-02-21T00:29:49.000Z,1004.04
2017-02-21T00:30:55.102Z,1004.05
2017-02-21T00:32:00.228Z,1004.04
2017-02-21T00:33:06.332Z,1004.06
2017-02-21T00:34:10.487Z,1004.09
2017-02-21T00:35:15.599Z,1004.08
2017-02-21T00:36:21.704Z,1004.07
2017-02-21T00:37:27.808Z,1004.09
2017-02-21T00:38:31.964Z,1004.04
2017-02-21T00:39:38.061Z,1004.09
2017-02-21T00:40:44.157Z,1004.09
2017-02-21T00:41:48.361Z,1004.05
2017-02-21T00:42:54.422Z,1004.09
2017-02-21T00:43:58.578Z,1004.1
2017-02-21T00:45:04.684Z,1004.17
2017-02-21T00:46:10.925Z,1004.2
2017-02-21T00:47:15.948Z,1004.21
2017-02-21T00:48:21.143Z,1004.17
2017-02-21T00:49:27.235Z,1004.08
2017-02-21T00:50:33.335Z,1004.15
2017-02-21T00:51:39.436Z,1004.13
2017-02-21T00:52:45.545Z,1004.06
2017-02-21T00:53:51.651Z,1004.12
2017-02-21T00:54:56.792Z,1004.09
2017-02-21T00:56:02.867Z,1004.12
2017-02-21T00:57:09.030Z,1004.07
2017-02-21T00:58:15.126Z,1004.11
2017-02-21T00:59:21.226Z,1004.09
2017-02-21T01:00:26.375Z,1004.06
2017-02-21T01:01:32.449Z,1003.97
2017-02-21T01:02:38.554Z,1003.95
2017-02-21T01:03:44.657Z,1003.93
2017-02-21T01:04:50.750Z,1003.94
2017-02-21T01:05:56.852Z,1003.89
2017-02-21T01:07:01.981Z,1003.87
2017-02-21T01:08:07.107Z,1003.94
2017-02-21T01:09:12.236Z,1003.94
2017-02-21T01:10:16.405Z,1003.92
2017-02-21T01:11:22.501Z,1003.92
2017-02-21T01:12:28.595Z,1003.92
2017-02-21T01:13:34.709Z,1003.89
2017-02-21T01:14:40.803Z,1003.95
2017-02-21T01:15:46.900Z,1004
2017-02-21T01:16:53.001Z,1004.11
2017-02-21T01:17:59.100Z,1004.07
2017-02-21T01:19:05.192Z,1004.05
2017-02-21T01:20:10.302Z,1004.11
2017-02-21T01:21:15.428Z,1004.08
2017-02-21T01:22:21.518Z,1004.08
2017-02-21T01:23:26.644Z,1004.08
2017-02-21T01:24:32.744Z,1004.12
2017-02-21T01:25:38.837Z,1004.06
2017-02-21T01:26:43.989Z,1004.06
2017-02-21T01:27:50.070Z,1004.05
2017-02-21T01:28:56.170Z,1004.08
2017-02-21T01:30:01.308Z,1003.97
2017-02-21T01:31:06.437Z,1003.97
2017-02-21T01:32:12.533Z,1004.01
2017-02-21T01:33:17.657Z,1004.06
2017-02-21T01:34:23.747Z,1004.04
2017-02-21T01:35:26.903Z,1004.01
2017-02-21T01:36:31.067Z,1004.04
2017-02-21T01:37:36.192Z,1004.06
2017-02-21T01:38:40.358Z,1004.06
2017-02-21T01:39:44.521Z,1004.03
2017-02-21T01:40:50.631Z,1004.04
2017-02-21T01:41:56.857Z,1003.97
2017-02-21T01:43:02.965Z,1004
2017-02-21T01:44:08.067Z,1004.04
2017-02-21T01:45:12.214Z,1003.95
2017-02-21T01:46:18.298Z,1003.97
2017-02-21T01:47:23.420Z,1003.98
2017-02-21T01:48:28.556Z,1004.04
2017-02-21T01:49:33.679Z,1004.04
2017-02-21T01:50:39.911Z,1004.08
2017-02-21T01:51:44.059Z,1004.01
2017-02-21T01:52:50.146Z,1004.05
2017-02-21T01:53:56.229Z,1003.97
2017-02-21T01:55:02.328Z,1003.96
2017-02-21T01:56:08.429Z,1003.9
2017-02-21T01:57:14.539Z,1003.87
2017-02-21T01:58:20.638Z,1003.95
2017-02-21T01:59:25.767Z,1003.91
2017-02-21T02:00:29.905Z,1003.96
2017-02-21T02:01:35.034Z,1003.95
2017-02-21T02:02:41.135Z,1003.97
2017-02-21T02:03:46.260Z,1003.96
2017-02-21T02:04:51.389Z,1003.99
2017-02-21T02:05:56.511Z,1003.98
2017-02-21T02:07:00.714Z,1004.03
2017-02-21T02:08:06.777Z,1004.03
2017-02-21T02:09:10.930Z,1004.01
2017-02-21T02:10:16.060Z,1004.01
2017-02-21T02:11:21.256Z,1004.01
2017-02-21T02:12:26.387Z,1003.95
2017-02-21T02:13:32.496Z,1004.03
2017-02-21T02:14:37.601Z,1004.03
2017-02-21T02:15:43.695Z,1004.05
2017-02-21T02:16:48.798Z,1004.01
2017-02-21T02:17:53.980Z,1004.06
2017-02-21T02:19:00.080Z,1004.02
2017-02-21T02:20:05.219Z,1004.09
2017-02-21T02:21:10.344Z,1004.11
2017-02-21T02:22:16.446Z,1004.06
2017-02-21T02:23:19.613Z,1004.04
2017-02-21T02:24:24.744Z,1004.02
2017-02-21T02:25:29.874Z,1004.04
2017-02-21T02:26:34.036Z,1003.97
2017-02-21T02:27:39.137Z,1003.94
2017-02-21T02:28:44.262Z,1003.92
2017-02-21T02:29:49.389Z,1003.9
2017-02-21T02:30:53.556Z,1003.86
2017-02-21T02:31:58.687Z,1003.9
2017-02-21T02:33:03.816Z,1003.92
2017-02-21T02:34:08.948Z,1003.87
2017-02-21T02:35:15.049Z,1003.86
2017-02-21T02:36:20.172Z,1003.86
2017-02-21T02:37:22.355Z,1003.89
2017-02-21T02:38:28.444Z,1003.91
2017-02-21T02:39:33.600Z,1003.89
2017-02-21T02:40:39.698Z,1003.94
2017-02-21T02:41:44.829Z,1003.95
2017-02-21T02:42:49.013Z,1003.98
2017-02-21T02:43:55.078Z,1003.97
2017-02-21T02:45:00.220Z,1004
2017-02-21T02:46:05.472Z,1004.01
2017-02-21T02:47:10.609Z,1004.03
2017-02-21T02:48:15.740Z,1004.03
2017-02-21T02:49:20.873Z,1004.06
2017-02-21T02:50:25.981Z,1003.98
2017-02-21T02:51:31.109Z,1004.03
2017-02-21T02:52:36.248Z,1004.03
2017-02-21T02:53:40.399Z,1003.99
2017-02-21T02:54:46.498Z,1003.95
2017-02-21T02:55:51.594Z,1003.96
2017-02-21T02:56:57.686Z,1004.01
2017-02-21T02:58:01.869Z,1004.01
2017-02-21T02:59:07.964Z,1003.92
2017-02-21T03:00:14.061Z,1003.89
2017-02-21T03:01:18.229Z,1003.88
2017-02-21T03:02:24.321Z,1003.89
2017-02-21T03:03:28.489Z,1003.92
2017-02-21T03:04:34.588Z,1003.93
2017-02-21T03:05:40.677Z,1003.85
2017-02-21T03:06:44.837Z,1003.87
2017-02-21T03:07:48.957Z,1003.91
2017-02-21T03:08:53.125Z,1003.94
2017-02-21T03:09:59.225Z,1003.99
2017-02-21T03:11:04.354Z,1004.07
2017-02-21T03:12:09.481Z,1004.03
2017-02-21T03:13:13.723Z,1003.98
2017-02-21T03:14:19.818Z,1004
2017-02-21T03:15:24.962Z,1004
2017-02-21T03:16:30.060Z,1003.93
2017-02-21T03:17:35.165Z,1003.88
2017-02-21T03:18:38.392Z,1003.89
2017-02-21T03:19:43.486Z,1003.93
2017-02-21T03:20:49.637Z,1003.94
2017-02-21T03:21:55.733Z,1003.93
2017-02-21T03:23:01.833Z,1003.93
2017-02-21T03:24:05.990Z,1004.02
2017-02-21T03:25:11.120Z,1004.08
2017-02-21T03:26:17.219Z,1004.04
2017-02-21T03:27:23.331Z,1004.08
2017-02-21T03:28:27.457Z,1004.15
2017-02-21T03:29:33.556Z,1004.1
2017-02-21T03:30:37.701Z,1004.05
2017-02-21T03:31:43.797Z,1004.07
2017-02-21T03:32:49.886Z,1004.09
2017-02-21T03:33:54.054Z,1004.07
2017-02-21T03:34:59.151Z,1004.06
2017-02-21T03:36:05.267Z,1004.02
2017-02-21T03:37:11.363Z,1004.04
2017-02-21T03:38:16.486Z,1003.95
2017-02-21T03:39:20.667Z,1003.83
2017-02-21T03:40:25.770Z,1003.69
2017-02-21T03:41:31.862Z,1003.62
2017-02-21T03:42:38.005Z,1003.68
2017-02-21T03:43:43.128Z,1003.76
2017-02-21T03:44:48.262Z,1003.84
2017-02-21T03:45:54.362Z,1003.92
2017-02-21T03:46:59.478Z,1003.94
2017-02-21T03:48:03.632Z,1004.05
2017-02-21T03:49:08.754Z,1004.09
2017-02-21T03:50:14.852Z,1004.09
2017-02-21T03:51:19.981Z,1004.16
2017-02-21T03:52:26.078Z,1004.16
2017-02-21T03:53:31.208Z,1004.29
2017-02-21T03:54:36.329Z,1004.26
2017-02-21T03:55:41.420Z,1004.25
2017-02-21T03:56:46.543Z,1004.3
2017-02-21T03:57:52.646Z,1004.3
2017-02-21T03:58:56.976Z,1004.25
2017-02-21T04:00:02.106Z,1004.28
2017-02-21T04:01:06.290Z,1004.29
2017-02-21T04:02:12.394Z,1004.28
2017-02-21T04:03:18.498Z,1004.27
2017-02-21T04:04:24.596Z,1004.33
2017-02-21T04:05:28.756Z,1004.23
2017-02-21T04:06:34.857Z,1004.25
2017-02-21T04:07:40.957Z,1004.22
2017-02-21T04:08:47.073Z,1004.19
2017-02-21T04:09:53.221Z,1004.22
2017-02-21T04:10:57.347Z,1004.22
2017-02-21T04:12:03.430Z,1004.24
2017-02-21T04:13:08.525Z,1004.18
2017-02-21T04:14:14.623Z,1004.31
2017-02-21T04:15:20.717Z,1004.23
2017-02-21T04:16:24.856Z,1004.22
2017-02-21T04:17:30.958Z,1004.25
2017-02-21T04:18:36.086Z,1004.18
2017-02-21T04:19:42.185Z,1004.15
2017-02-21T04:20:48.291Z,1004.1
2017-02-21T04:21:53.416Z,1004.04
2017-02-21T04:22:59.521Z,1004.01
2017-02-21T04:24:05.606Z,1004.05
2017-02-21T04:25:08.789Z,1004.02
2017-02-21T04:26:14.880Z,1004.02
2017-02-21T04:27:18.042Z,1004.04
2017-02-21T04:28:23.164Z,1004
2017-02-21T04:29:28.258Z,1004.04
2017-02-21T04:30:33.401Z,1004.07
2017-02-21T04:31:39.488Z,1004.05
2017-02-21T04:32:45.578Z,1004.12
2017-02-21T04:33:51.672Z,1004.11
2017-02-21T04:34:56.776Z,1004.09
2017-02-21T04:36:02.881Z,1004.11
2017-02-21T04:37:08.009Z,1004.04
2017-02-21T04:38:13.143Z,1004.06
2017-02-21T04:39:18.261Z,1003.94
2017-02-21T04:40:23.400Z,1003.98
2017-02-21T04:41:29.481Z,1004.07
2017-02-21T04:42:32.648Z,1004.11
2017-02-21T04:43:38.735Z,1004.15
2017-02-21T04:44:44.835Z,1004.16
2017-02-21T04:45:50.943Z,1004.21
2017-02-21T04:46:56.071Z,1004.2
2017-02-21T04:48:01.195Z,1004.23
2017-02-21T04:49:06.367Z,1004.23
2017-02-21T04:50:10.503Z,1004.27
2017-02-21T04:51:16.625Z,1004.26
2017-02-21T04:52:21.730Z,1004.31
2017-02-21T04:53:27.836Z,1004.37
2017-02-21T04:54:33.938Z,1004.43
2017-02-21T04:55:39.064Z,1004.42
2017-02-21T04:56:43.217Z,1004.48
2017-02-21T04:57:48.342Z,1004.52
2017-02-21T04:58:51.545Z,1004.5
2017-02-21T04:59:56.681Z,1004.54
2017-02-21T05:01:01.804Z,1004.58
2017-02-21T05:02:05.003Z,1004.56
2017-02-21T05:03:11.102Z,1004.61
2017-02-21T05:04:17.189Z,1004.56
2017-02-21T05:05:22.287Z,1004.53
2017-02-21T05:06:27.415Z,1004.58
2017-02-21T05:07:33.590Z,1004.59
2017-02-21T05:08:39.695Z,1004.62
2017-02-21T05:09:45.785Z,1004.58
2017-02-21T05:10:50.912Z,1004.56
2017-02-21T05:11:56.012Z,1004.43
2017-02-21T05:13:01.150Z,1004.45
2017-02-21T05:14:06.292Z,1004.45
2017-02-21T05:15:12.380Z,1004.44
2017-02-21T05:16:17.527Z,1004.47
2017-02-21T05:17:22.657Z,1004.47
2017-02-21T05:18:27.788Z,1004.48
2017-02-21T05:19:32.915Z,1004.49
2017-02-21T05:20:36.103Z,1004.47
2017-02-21T05:21:42.252Z,1004.46
2017-02-21T05:22:48.347Z,1004.44
2017-02-21T05:23:53.486Z,1004.41
2017-02-21T05:24:59.600Z,1004.47
2017-02-21T05:26:05.691Z,1004.48
2017-02-21T05:27:09.819Z,1004.5
2017-02-21T05:28:15.922Z,1004.55
2017-02-21T05:29:20.050Z,1004.49
2017-02-21T05:30:26.138Z,1004.49
2017-02-21T05:31:31.239Z,1004.52
2017-02-21T05:32:37.338Z,1004.49
2017-02-21T05:33:41.534Z,1004.45
2017-02-21T05:34:46.664Z,1004.37
2017-02-21T05:35:50.821Z,1004.37
2017-02-21T05:36:55.950Z,1004.39
2017-02-21T05:38:02.050Z,1004.51
2017-02-21T05:39:07.181Z,1004.51
2017-02-21T05:40:12.312Z,1004.49
2017-02-21T05:41:18.443Z,1004.52
2017-02-21T05:42:22.556Z,1004.42
2017-02-21T05:43:27.684Z,1004.44
2017-02-21T05:44:32.816Z,1004.47
2017-02-21T05:45:38.945Z,1004.52
2017-02-21T05:46:45.013Z,1004.57
2017-02-21T05:47:50.130Z,1004.59
2017-02-21T05:48:56.220Z,1004.63
2017-02-21T05:50:00.397Z,1004.61
2017-02-21T05:51:05.520Z,1004.62
2017-02-21T05:52:11.789Z,1004.63
2017-02-21T05:53:16.916Z,1004.66
2017-02-21T05:54:21.077Z,1004.64
2017-02-21T05:55:26.207Z,1004.58
2017-02-21T05:56:32.295Z,1004.59
2017-02-21T05:57:37.426Z,1004.61
2017-02-21T05:58:43.526Z,1004.74
2017-02-21T05:59:49.625Z,1004.73
2017-02-21T06:00:55.724Z,1004.77
2017-02-21T06:01:58.889Z,1004.81
2017-02-21T06:03:04.989Z,1004.86
2017-02-21T06:04:09.118Z,1004.86
2017-02-21T06:05:14.217Z,1004.87
2017-02-21T06:06:18.390Z,1004.9
2017-02-21T06:07:24.512Z,1004.92
2017-02-21T06:08:29.580Z,1004.96
2017-02-21T06:09:34.716Z,1004.97
2017-02-21T06:10:39.856Z,1005
2017-02-21T06:11:44.011Z,1005
2017-02-21T06:12:50.114Z,1005
2017-02-21T06:13:56.212Z,1004.95
2017-02-21T06:15:01.339Z,1004.96
2017-02-21T06:16:06.476Z,1004.9
2017-02-21T06:17:12.566Z,1004.88
2017-02-21T06:18:17.698Z,1004.93
2017-02-21T06:19:23.801Z,1004.99
2017-02-21T06:20:29.884Z,1004.98
2017-02-21T06:21:35.983Z,1005.03
2017-02-21T06:22:41.111Z,1005.04
2017-02-21T06:23:45.280Z,1005.01
2017-02-21T06:24:50.410Z,1005.02
2017-02-21T06:25:56.515Z,1005.01
2017-02-21T06:27:02.604Z,1005.04
2017-02-21T06:28:08.701Z,1005.08
2017-02-21T06:29:14.924Z,1005.12
2017-02-21T06:30:21.025Z,1005.14
2017-02-21T06:31:27.112Z,1005.12
2017-02-21T06:32:32.235Z,1005.15
2017-02-21T06:33:37.376Z,1005.19
2017-02-21T06:34:42.501Z,1005.21
2017-02-21T06:35:45.662Z,1005.18
2017-02-21T06:36:50.820Z,1005.22
2017-02-21T06:37:56.939Z,1005.25
2017-02-21T06:39:02.045Z,1005.27
2017-02-21T06:40:07.171Z,1005.29
2017-02-21T06:41:11.329Z,1005.21
2017-02-21T06:42:16.445Z,1005.29
2017-02-21T06:43:20.634Z,1005.31
2017-02-21T06:44:26.742Z,1005.33
2017-02-21T06:45:31.865Z,1005.31
2017-02-21T06:46:37.962Z,1005.29
2017-02-21T06:47:44.057Z,1005.33
2017-02-21T06:48:48.210Z,1005.31
2017-02-21T06:49:53.360Z,1005.36
2017-02-21T06:50:59.440Z,1005.3
2017-02-21T06:52:04.569Z,1005.33
2017-02-21T06:53:06.765Z,1005.36
2017-02-21T06:54:12.847Z,1005.37
2017-02-21T06:55:18.951Z,1005.36
2017-02-21T06:56:25.044Z,1005.3
2017-02-21T06:57:31.145Z,1005.29
2017-02-21T06:58:35.306Z,1005.24
2017-02-21T06:59:40.460Z,1005.27
2017-02-21T07:00:45.554Z,1005.31
2017-02-21T07:01:50.690Z,1005.33
2017-02-21T07:02:56.781Z,1005.31
2017-02-21T07:04:00.921Z,1005.33
2017-02-21T07:05:05.066Z,1005.31
2017-02-21T07:06:09.225Z,1005.32
2017-02-21T07:07:14.357Z,1005.35
2017-02-21T07:08:19.454Z,1005.35
2017-02-21T07:09:25.546Z,1005.41
2017-02-21T07:10:31.652Z,1005.38
2017-02-21T07:11:37.802Z,1005.38
2017-02-21T07:12:43.905Z,1005.37
2017-02-21T07:13:49.034Z,1005.43
2017-02-21T07:14:55.127Z,1005.35
2017-02-21T07:15:59.258Z,1005.38
2017-02-21T07:17:05.355Z,1005.4
2017-02-21T07:18:10.481Z,1005.4
2017-02-21T07:19:15.577Z,1005.45
2017-02-21T07:20:21.685Z,1005.45
2017-02-21T07:21:26.810Z,1005.53
2017-02-21T07:22:29.975Z,1005.5
2017-02-21T07:23:34.159Z,1005.53
2017-02-21T07:24:39.270Z,1005.6
2017-02-21T07:25:43.435Z,1005.51
2017-02-21T07:26:49.544Z,1005.58
2017-02-21T07:27:54.670Z,1005.55
2017-02-21T07:29:00.770Z,1005.53
2017-02-21T07:30:06.869Z,1005.49
2017-02-21T07:31:11.988Z,1005.47
2017-02-21T07:32:18.075Z,1005.49
2017-02-21T07:33:24.174Z,1005.44
2017-02-21T07:34:29.311Z,1005.41
2017-02-21T07:35:35.423Z,1005.44
2017-02-21T07:36:38.604Z,1005.47
2017-02-21T07:37:44.701Z,1005.52
2017-02-21T07:38:49.828Z,1005.5
2017-02-21T07:39:54.961Z,1005.56
2017-02-21T07:41:00.069Z,1005.56
2017-02-21T07:42:04.209Z,1005.59
2017-02-21T07:43:09.340Z,1005.54
2017-02-21T07:44:14.468Z,1005.55
2017-02-21T07:45:20.591Z,1005.59
2017-02-21T07:46:26.671Z,1005.61
2017-02-21T07:47:32.777Z,1005.65
2017-02-21T07:48:38.868Z,1005.63
2017-02-21T07:49:44.000Z,1005.6
2017-02-21T07:50:48.164Z,1005.62
2017-02-21T07:51:52.317Z,1005.6
2017-02-21T07:52:58.410Z,1005.59
2017-02-21T07:54:04.569Z,1005.65
2017-02-21T07:55:08.673Z,1005.66
2017-02-21T07:56:12.954Z,1005.68
2017-02-21T07:57:19.066Z,1005.62
2017-02-21T07:58:23.216Z,1005.63
2017-02-21T07:59:29.304Z,1005.67
2017-02-21T08:00:33.439Z,1005.8
2017-02-21T08:01:38.597Z,1005.76
2017-02-21T08:02:42.811Z,1005.79
2017-02-21T08:03:48.907Z,1005.75
2017-02-21T08:04:54.037Z,1005.84
2017-02-21T08:05:59.169Z,1005.82
2017-02-21T08:07:05.285Z,1005.84
2017-02-21T08:08:11.377Z,1005.87
2017-02-21T08:09:16.487Z,1005.85
2017-02-21T08:10:21.614Z,1005.86
2017-02-21T08:11:26.746Z,1005.85
2017-02-21T08:12:31.870Z,1005.85
2017-02-21T08:13:37.976Z,1005.91
2017-02-21T08:14:43.277Z,1005.92
2017-02-21T08:15:48.409Z,1005.92
2017-02-21T08:16:52.535Z,1005.96
2017-02-21T08:17:57.665Z,1005.94
2017-02-21T08:19:02.796Z,1006.02
2017-02-21T08:20:07.911Z,1006.02
2017-02-21T08:21:14.014Z,1005.99
2017-02-21T08:22:19.144Z,1006.03
2017-02-21T08:23:25.291Z,1006
2017-02-21T08:24:29.473Z,1006.06
2017-02-21T08:25:35.571Z,1005.99
2017-02-21T08:26:39.720Z,1006
2017-02-21T08:27:44.821Z,1006.05
2017-02-21T08:28:50.917Z,1006.06
2017-02-21T08:29:57.016Z,1006.05
2017-02-21T08:31:02.145Z,1006.05
2017-02-21T08:32:08.237Z,1006.11
2017-02-21T08:33:13.360Z,1006.09
2017-02-21T08:34:19.463Z,1006.09
2017-02-21T08:35:25.564Z,1006.08
2017-02-21T08:36:31.670Z,1006.07
2017-02-21T08:37:34.867Z,1006.11
2017-02-21T08:38:40.968Z,1006.09
2017-02-21T08:39:46.093Z,1006.08
2017-02-21T08:40:51.222Z,1006.04
2017-02-21T08:41:56.382Z,1006.12
2017-02-21T08:43:01.502Z,1006.05
2017-02-21T08:44:07.601Z,1006.15
2017-02-21T08:45:12.704Z,1006.16
2017-02-21T08:46:18.801Z,1006.12
2017-02-21T08:47:22.968Z,1006.15
2017-02-21T08:48:29.116Z,1006.18
2017-02-21T08:49:34.232Z,1006.17
2017-02-21T08:50:39.375Z,1006.23
2017-02-21T08:51:45.474Z,1006.17
2017-02-21T08:52:50.576Z,1006.16
2017-02-21T08:53:55.699Z,1006.1
2017-02-21T08:55:01.907Z,1006.11
2017-02-21T08:56:07.012Z,1006.1
2017-02-21T08:57:12.138Z,1006.08
2017-02-21T08:58:17.270Z,1006.1
2017-02-21T08:59:21.441Z,1006.12
2017-02-21T09:00:25.617Z,1006.13
2017-02-21T09:01:30.727Z,1006.17
2017-02-21T09:02:36.877Z,1006.15
2017-02-21T09:03:41.003Z,1006.26
2017-02-21T09:04:46.133Z,1006.24
2017-02-21T09:05:50.325Z,1006.25
2017-02-21T09:06:56.421Z,1006.26
2017-02-21T09:08:02.502Z,1006.32
2017-02-21T09:09:07.639Z,1006.33
2017-02-21T09:10:13.740Z,1006.3
2017-02-21T09:11:18.883Z,1006.3
2017-02-21T09:12:23.010Z,1006.36
2017-02-21T09:13:28.194Z,1006.35
2017-02-21T09:14:33.326Z,1006.36
2017-02-21T09:15:39.484Z,1006.37
2017-02-21T09:16:43.645Z,1006.31
2017-02-21T09:17:47.800Z,1006.29
2017-02-21T09:18:52.932Z,1006.29
2017-02-21T09:19:58.071Z,1006.27
2017-02-21T09:21:04.170Z,1006.34
2017-02-21T09:22:09.283Z,1006.27
2017-02-21T09:23:15.390Z,1006.38
2017-02-21T09:24:19.586Z,1006.37
2017-02-21T09:25:25.690Z,1006.44
2017-02-21T09:26:31.786Z,1006.43
2017-02-21T09:27:36.923Z,1006.47
2017-02-21T09:28:41.192Z,1006.49
2017-02-21T09:29:47.302Z,1006.48
2017-02-21T09:30:51.548Z,1006.55
2017-02-21T09:31:54.620Z,1006.54
2017-02-21T09:32:59.760Z,1006.51
2017-02-21T09:34:04.888Z,1006.54
2017-02-21T09:35:10.021Z,1006.57
2017-02-21T09:36:15.152Z,1006.55
2017-02-21T09:37:19.288Z,1006.57
2017-02-21T09:38:24.546Z,1006.63
2017-02-21T09:39:29.652Z,1006.67
2017-02-21T09:40:35.752Z,1006.66
2017-02-21T09:41:42.012Z,1006.66
2017-02-21T09:42:48.115Z,1006.69
2017-02-21T09:43:53.261Z,1006.71
2017-02-21T09:44:59.468Z,1006.76
2017-02-21T09:46:04.573Z,1006.82
2017-02-21T09:47:10.675Z,1006.75
2017-02-21T09:48:15.777Z,1006.73
2017-02-21T09:49:21.888Z,1006.75
2017-02-21T09:50:27.021Z,1006.66
2017-02-21T09:51:32.261Z,1006.77
2017-02-21T09:52:36.391Z,1006.81
2017-02-21T09:53:41.528Z,1006.83
2017-02-21T09:54:46.667Z,1006.87
2017-02-21T09:55:51.821Z,1006.88
2017-02-21T09:56:56.940Z,1006.82
2017-02-21T09:58:01.112Z,1006.88
2017-02-21T09:59:06.234Z,1006.93
2017-02-21T10:00:11.362Z,1006.89
2017-02-21T10:01:15.539Z,1006.92
2017-02-21T10:02:18.737Z,1006.84
2017-02-21T10:03:24.845Z,1006.8
2017-02-21T10:04:30.942Z,1006.84
2017-02-21T10:05:36.069Z,1006.81
2017-02-21T10:06:40.241Z,1006.83
2017-02-21T10:07:45.412Z,1006.77
2017-02-21T10:08:50.531Z,1006.83
2017-02-21T10:09:55.655Z,1006.75
2017-02-21T10:10:59.845Z,1006.78
2017-02-21T10:12:04.976Z,1006.78
2017-02-21T10:13:08.172Z,1006.75
2017-02-21T10:14:13.278Z,1006.77
2017-02-21T10:15:18.423Z,1006.79
2017-02-21T10:16:23.548Z,1006.83
2017-02-21T10:17:28.715Z,1006.82
2017-02-21T10:18:34.788Z,1006.77
2017-02-21T10:19:40.889Z,1006.77
2017-02-21T10:20:46.998Z,1006.77
2017-02-21T10:21:51.135Z,1006.82
2017-02-21T10:22:57.227Z,1006.77
2017-02-21T10:24:03.337Z,1006.85
2017-02-21T10:25:09.433Z,1006.81
2017-02-21T10:26:15.562Z,1006.82
2017-02-21T10:27:20.674Z,1006.81
2017-02-21T10:28:24.820Z,1006.79
2017-02-21T10:29:29.961Z,1006.76
2017-02-21T10:30:35.102Z,1006.85
2017-02-21T10:31:39.222Z,1006.76
2017-02-21T10:32:45.331Z,1006.78
2017-02-21T10:33:50.456Z,1006.77
2017-02-21T10:34:56.556Z,1006.79
2017-02-21T10:36:02.669Z,1006.8
2017-02-21T10:37:08.765Z,1006.8
2017-02-21T10:38:12.900Z,1006.78
2017-02-21T10:39:18.032Z,1006.8
2017-02-21T10:40:23.163Z,1006.78
2017-02-21T10:41:29.325Z,1006.8
2017-02-21T10:42:34.456Z,1006.78
2017-02-21T10:43:38.590Z,1006.78
2017-02-21T10:44:44.690Z,1006.79
2017-02-21T10:45:48.859Z,1006.83
2017-02-21T10:46:53.972Z,1006.85
2017-02-21T10:47:59.109Z,1006.81
2017-02-21T10:49:02.291Z,1006.82
2017-02-21T10:50:07.413Z,1006.8
2017-02-21T10:51:13.511Z,1006.82
2017-02-21T10:52:18.646Z,1006.87
2017-02-21T10:53:24.776Z,1006.89
2017-02-21T10:54:30.861Z,1006.87
2017-02-21T10:55:35.993Z,1006.83
2017-02-21T10:56:41.123Z,1006.83
2017-02-21T10:57:46.260Z,1006.87
2017-02-21T10:58:50.426Z,1006.89
2017-02-21T10:59:54.549Z,1006.8
2017-02-21T11:00:59.667Z,1006.82
2017-02-21T11:02:05.772Z,1006.76
2017-02-21T11:03:10.909Z,1006.76
2017-02-21T11:04:16.043Z,1006.77
2017-02-21T11:05:21.186Z,1006.8
2017-02-21T11:06:27.384Z,1006.85
2017-02-21T11:07:33.462Z,1006.87
2017-02-21T11:08:39.567Z,1006.88
2017-02-21T11:09:44.756Z,1006.88
2017-02-21T11:10:48.896Z,1006.8
2017-02-21T11:11:55.013Z,1006.83
2017-02-21T11:13:01.116Z,1006.82
2017-02-21T11:14:05.255Z,1006.84
2017-02-21T11:15:10.407Z,1006.81
2017-02-21T11:16:16.534Z,1006.8
2017-02-21T11:17:22.636Z,1006.87
2017-02-21T11:18:28.741Z,1006.87
2017-02-21T11:19:33.973Z,1006.85
2017-02-21T11:20:39.106Z,1006.87
2017-02-21T11:21:45.197Z,1006.9
2017-02-21T11:22:51.348Z,1006.88
2017-02-21T11:23:57.456Z,1006.84
2017-02-21T11:25:02.601Z,1006.87
2017-02-21T11:26:08.684Z,1006.83
2017-02-21T11:27:13.819Z,1006.88
2017-02-21T11:28:18.969Z,1006.84
2017-02-21T11:29:25.083Z,1006.84
2017-02-21T11:30:31.209Z,1006.93
2017-02-21T11:31:36.334Z,1006.92
2017-02-21T11:32:42.441Z,1006.92
2017-02-21T11:33:47.590Z,1006.92
2017-02-21T11:34:51.755Z,1006.9
2017-02-21T11:35:56.896Z,1006.96
2017-02-21T11:37:02.038Z,1006.9
2017-02-21T11:38:08.197Z,1006.94
2017-02-21T11:39:12.333Z,1006.95
2017-02-21T11:40:17.465Z,1006.98
2017-02-21T11:41:21.652Z,1007
2017-02-21T11:42:27.774Z,1007.06
2017-02-21T11:43:33.857Z,1007.03
2017-02-21T11:44:39.978Z,1006.99
2017-02-21T11:45:45.112Z,1006.87
2017-02-21T11:46:50.243Z,1006.89
2017-02-21T11:47:56.335Z,1006.9
2017-02-21T11:49:02.461Z,1006.88
2017-02-21T11:50:08.566Z,1006.89
2017-02-21T11:51:13.675Z,1006.84
2017-02-21T11:52:16.972Z,1006.94
2017-02-21T11:53:23.076Z,1006.91
2017-02-21T11:54:26.252Z,1006.88
2017-02-21T11:55:32.353Z,1006.87
2017-02-21T11:56:36.519Z,1006.9
2017-02-21T11:57:39.730Z,1006.89
2017-02-21T11:58:43.899Z,1006.9
2017-02-21T11:59:49.009Z,1006.9
2017-02-21T12:00:54.131Z,1006.95
2017-02-21T12:02:00.230Z,1006.96
2017-02-21T12:03:04.353Z,1006.93
2017-02-21T12:04:08.487Z,1006.92
2017-02-21T12:05:14.604Z,1006.86
2017-02-21T12:06:20.704Z,1006.83
2017-02-21T12:07:26.804Z,1006.82
2017-02-21T12:08:31.910Z,1006.77
2017-02-21T12:09:38.012Z,1006.68
2017-02-21T12:10:43.124Z,1006.65
2017-02-21T12:11:49.222Z,1006.7
2017-02-21T12:12:54.358Z,1006.71
2017-02-21T12:14:00.459Z,1006.63
2017-02-21T12:15:05.594Z,1006.63
2017-02-21T12:16:11.693Z,1006.62
2017-02-21T12:17:17.806Z,1006.72
2017-02-21T12:18:22.925Z,1006.64
2017-02-21T12:19:28.035Z,1006.66
2017-02-21T12:20:33.163Z,1006.67
2017-02-21T12:21:38.296Z,1006.7
2017-02-21T12:22:42.452Z,1006.64
2017-02-21T12:23:48.542Z,1006.62
2017-02-21T12:24:54.638Z,1006.63
2017-02-21T12:25:59.780Z,1006.66
2017-02-21T12:27:04.893Z,1006.63
2017-02-21T12:28:10.030Z,1006.64
2017-02-21T12:29:16.123Z,1006.6
2017-02-21T12:30:20.283Z,1006.62
2017-02-21T12:31:26.383Z,1006.65
2017-02-21T12:32:30.586Z,1006.66
2017-02-21T12:33:35.710Z,1006.66
2017-02-21T12:34:40.849Z,1006.68
2017-02-21T12:35:46.089Z,1006.75
2017-02-21T12:36:52.196Z,1006.67
2017-02-21T12:37:57.330Z,1006.7
2017-02-21T12:39:02.438Z,1006.63
2017-02-21T12:40:07.565Z,1006.59
2017-02-21T12:41:13.678Z,1006.62
2017-02-21T12:42:19.784Z,1006.59
2017-02-21T12:43:24.904Z,1006.63
2017-02-21T12:44:30.038Z,1006.59
2017-02-21T12:45:36.131Z,1006.61
2017-02-21T12:46:41.269Z,1006.61
2017-02-21T12:47:47.450Z,1006.67
2017-02-21T12:48:52.512Z,1006.68
2017-02-21T12:49:57.615Z,1006.61
2017-02-21T12:51:01.785Z,1006.65
2017-02-21T12:52:07.877Z,1006.57
2017-02-21T12:53:13.978Z,1006.56
2017-02-21T12:54:20.106Z,1006.58
2017-02-21T12:55:26.265Z,1006.54
2017-02-21T12:56:28.473Z,1006.58
2017-02-21T12:57:34.572Z,1006.58
2017-02-21T12:58:38.746Z,1006.53
2017-02-21T12:59:44.857Z,1006.56
2017-02-21T13:00:50.959Z,1006.57
2017-02-21T13:01:56.089Z,1006.51
2017-02-21T13:03:00.220Z,1006.58
2017-02-21T13:04:05.354Z,1006.61
2017-02-21T13:05:09.517Z,1006.62
2017-02-21T13:06:13.700Z,1006.66
2017-02-21T13:07:18.836Z,1006.69
2017-02-21T13:08:24.953Z,1006.54
2017-02-21T13:09:31.071Z,1006.66
2017-02-21T13:10:35.229Z,1006.61
2017-02-21T13:11:41.319Z,1006.66
2017-02-21T13:12:45.459Z,1006.62